Terminal Aerodrome Forecast
Issued by NWS

Home | Current Version | Previous Version | Text Only | Print | Product List | Glossary Off
Versions: 1 2 3 4 5 6 7 8 9 10 11 12 13 14 15 16

000
FTUS42 KMHX 061743
TAFPGV
TAF
KPGV 061743Z 0618/0718 07010KT 5SM BR OVC004
      TEMPO 0618/0619 OVC005
     FM062200 33008KT P6SM VCSH SCT004 OVC007
     FM070100 29009KT 5SM BR SCT003 OVC007
     FM071300 34006KT P6SM SCT250
      AMD LTD TO CLD VIS AND WIND=

USA.gov is the U.S. government's official web portal to all federal, state and local government web resources and services.